Time;durP1;ratioP1;P1;durP2;ratioP2;P2;SDS_P1;SDS_P2;PMS_P1;PMS_P2;Temp;Humidity;BMP_temperature;BMP_pressure;BME280_temperature;BME280_humidity;BME280_pressure;Samples;Min_cycle;Max_cycle;Signal;HPM_P1;HPM_P2
2022/10/03 00:02:23;;;;;;;2.92;1.20;;;19.80;77.40;;;;;;5002317;28;20029;-67
2022/10/03 02:14:23;;;;;;;7.38;3.08;;;19.00;79.70;;;;;;5094060;27;20364;-67
2022/10/03 02:16:57;;;;;;;15.13;2.22;;;19.20;80.80;;;;;;5080878;28;20040;-67
2022/10/03 02:19:34;;;;;;;4.13;1.80;;;19.20;81.20;;;;;;5086999;28;20024;-70
2022/10/03 02:22:01;;;;;;;17.20;2.47;;;19.30;81.50;;;;;;5087979;28;20041;-67
2022/10/03 02:24:44;;;;;;;7.57;1.60;;;19.40;81.40;;;;;;5093189;28;20016;-68
2022/10/03 02:27:41;;;;;;;3.00;1.27;;;19.40;81.40;;;;;;5084905;28;20012;-66
2022/10/03 02:30:37;;;;;;;4.95;1.50;;;19.40;80.70;;;;;;5090067;28;20142;-67
2022/10/03 02:33:57;;;;;;;4.30;0.98;;;19.40;80.20;;;;;;5086705;28;20077;-66
2022/10/03 02:36:42;;;;;;;17.75;2.85;;;19.40;79.80;;;;;;4981175;28;20054;-66
2022/10/03 02:39:37;;;;;;;21.88;5.68;;;19.40;79.30;;;;;;5079327;28;20074;-67
2022/10/03 02:42:39;;;;;;;24.55;9.52;;;19.40;80.20;;;;;;5086742;28;20051;-66
2022/10/03 02:45:37;;;;;;;12.40;5.68;;;19.40;80.80;;;;;;5088832;28;20024;-67
2022/10/03 02:48:28;;;;;;;18.33;3.97;;;19.40;81.00;;;;;;5088043;28;20028;-67
2022/10/03 02:51:19;;;;;;;5.05;2.42;;;19.40;80.60;;;;;;5087681;28;20030;-66
2022/10/03 02:54:14;;;;;;;3.88;1.73;;;19.40;80.20;;;;;;5085701;28;20394;-67
2022/10/03 02:56:49;;;;;;;5.50;1.45;;;19.40;80.30;;;;;;5088064;28;20501;-67
2022/10/03 02:59:33;;;;;;;5.90;3.08;;;19.40;79.30;;;;;;5085347;28;20525;-66
2022/10/03 03:02:27;;;;;;;5.17;1.00;;;19.40;79.00;;;;;;5088051;28;20040;-66
2022/10/03 03:05:21;;;;;;;6.53;0.85;;;19.40;78.90;;;;;;5089063;28;20031;-66
2022/10/03 03:08:04;;;;;;;5.65;1.30;;;19.30;78.90;;;;;;5087834;28;20194;-66
2022/10/03 03:11:15;;;;;;;7.97;3.75;;;19.30;78.90;;;;;;5086042;28;20855;-66
2022/10/03 03:13:58;;;;;;;4.85;1.08;;;19.30;78.80;;;;;;5078175;28;20451;-68
2022/10/03 03:16:39;;;;;;;6.10;1.85;;;19.30;78.70;;;;;;5073086;28;20376;-66
2022/10/03 03:19:27;;;;;;;6.22;1.60;;;19.20;78.50;;;;;;5075721;28;20027;-70
2022/10/03 03:22:24;;;;;;;12.32;1.45;;;19.20;78.40;;;;;;5072758;28;20020;-70
2022/10/03 03:25:26;;;;;;;15.35;2.30;;;19.20;78.50;;;;;;5070153;28;20052;-67
2022/10/03 03:28:23;;;;;;;2.13;1.00;;;19.20;78.50;;;;;;5075403;28;20583;-66
2022/10/03 03:31:12;;;;;;;7.72;1.38;;;19.10;78.50;;;;;;5073357;28;20024;-69
2022/10/03 03:33:52;;;;;;;6.00;1.23;;;19.10;78.70;;;;;;5069637;28;20016;-70
2022/10/03 03:37:02;;;;;;;2.58;1.55;;;19.10;78.70;;;;;;5072352;28;20028;-67
2022/10/03 03:39:31;;;;;;;2.17;0.70;;;19.10;78.60;;;;;;5068968;28;20024;-70
2022/10/03 03:42:15;;;;;;;3.58;1.33;;;19.10;78.50;;;;;;5076274;28;20423;-69
2022/10/03 03:45:06;;;;;;;5.78;1.20;;;19.10;78.50;;;;;;5074382;28;20035;-71
2022/10/03 03:48:11;;;;;;;4.78;1.38;;;19.10;78.50;;;;;;5072829;28;20046;-68
2022/10/03 03:51:10;;;;;;;33.15;15.52;;;19.00;78.70;;;;;;5068471;28;20118;-67
2022/10/03 03:53:49;;;;;;;22.17;15.23;;;19.10;79.30;;;;;;5071270;28;20056;-66
2022/10/03 03:56:33;;;;;;;15.77;8.52;;;19.00;79.30;;;;;;5066523;28;20017;-66
2022/10/03 03:59:13;;;;;;;10.20;5.07;;;19.00;79.00;;;;;;5071744;28;20096;-66
2022/10/03 04:02:26;;;;;;;4.38;2.13;;;19.00;78.80;;;;;;5072581;28;20036;-66
2022/10/03 04:05:08;;;;;;;5.70;1.50;;;19.00;78.70;;;;;;5012234;28;20919;-67
2022/10/03 04:07:53;;;;;;;6.88;1.35;;;18.90;79.50;;;;;;5072298;28;20100;-66
2022/10/03 04:10:47;;;;;;;6.20;1.63;;;18.90;79.90;;;;;;5077849;28;20013;-67
2022/10/03 04:13:27;;;;;;;2.42;1.23;;;19.00;80.10;;;;;;5065857;28;20567;-70
2022/10/03 04:16:03;;;;;;;25.65;18.25;;;18.90;80.10;;;;;;5073258;28;20093;-69
2022/10/03 04:18:56;;;;;;;27.40;17.17;;;18.90;80.10;;;;;;5071706;28;20450;-68
2022/10/03 04:21:50;;;;;;;18.27;13.27;;;18.90;79.90;;;;;;5069365;28;20107;-70
2022/10/03 04:24:42;;;;;;;9.57;5.63;;;18.90;79.60;;;;;;5071094;28;20420;-70
2022/10/03 04:27:30;;;;;;;5.97;3.50;;;18.90;79.40;;;;;;5069398;28;20078;-68
2022/10/03 04:30:18;;;;;;;4.45;2.17;;;18.90;79.30;;;;;;5069427;28;20051;-70
2022/10/03 04:32:56;;;;;;;13.93;2.13;;;18.80;79.10;;;;;;5070165;28;20020;-70
2022/10/03 04:35:59;;;;;;;6.40;1.70;;;18.80;79.00;;;;;;5071620;28;20467;-69
2022/10/03 04:38:53;;;;;;;10.20;2.42;;;18.80;80.10;;;;;;5070139;28;20028;-71
2022/10/03 04:41:28;;;;;;;9.05;1.48;;;18.80;79.50;;;;;;5067865;28;20032;-68
2022/10/03 04:44:01;;;;;;;;;;;18.80;79.40;;;;;;5074652;28;20032;-68
2022/10/03 04:46:38;;;;;;;5.57;1.52;;;18.80;79.50;;;;;;5068664;28;19917;-68
2022/10/03 04:49:38;;;;;;;6.35;1.52;;;18.80;79.60;;;;;;5070697;28;20355;-70
2022/10/03 04:52:26;;;;;;;24.92;2.35;;;18.80;79.80;;;;;;5074022;28;20013;-71
2022/10/03 04:55:37;;;;;;;9.85;1.92;;;18.70;79.90;;;;;;5071966;28;20067;-67
2022/10/03 04:58:52;;;;;;;10.55;1.95;;;18.70;80.10;;;;;;5072240;28;20028;-69
2022/10/03 05:01:25;;;;;;;3.97;1.50;;;18.70;80.10;;;;;;4994213;28;20066;-69
2022/10/03 05:04:13;;;;;;;2.97;1.27;;;18.80;80.10;;;;;;5069399;28;20029;-69
2022/10/03 05:07:17;;;;;;;27.10;3.38;;;18.80;80.10;;;;;;5067392;28;20346;-70
2022/10/03 05:10:23;;;;;;;11.45;2.33;;;18.80;80.10;;;;;;5064967;28;20029;-71
2022/10/03 05:13:15;;;;;;;3.00;1.50;;;18.70;79.90;;;;;;5034540;28;20500;-69
2022/10/03 05:16:10;;;;;;;3.25;1.15;;;18.80;79.90;;;;;;5068286;28;20040;-68
2022/10/03 05:19:14;;;;;;;10.80;3.30;;;18.80;80.10;;;;;;5064621;28;20024;-69
2022/10/03 05:22:03;;;;;;;3.80;1.25;;;18.80;80.60;;;;;;5067673;28;20089;-66
2022/10/03 05:24:44;;;;;;;6.32;1.50;;;18.80;80.90;;;;;;5067346;28;20044;-67
2022/10/03 05:27:29;;;;;;;2.10;0.95;;;18.80;81.10;;;;;;5067223;28;20024;-69
2022/10/03 05:30:06;;;;;;;2.88;1.00;;;18.80;81.10;;;;;;5049310;28;20473;-70
2022/10/03 05:32:42;;;;;;;3.83;1.20;;;18.80;81.20;;;;;;5068284;28;20070;-68
2022/10/03 05:35:21;;;;;;;2.17;1.98;;;18.90;81.30;;;;;;5051696;28;20165;-69
2022/10/03 05:38:12;;;;;;;16.67;1.90;;;18.80;81.10;;;;;;5070502;28;20448;-69
2022/10/03 05:41:02;;;;;;;5.95;2.03;;;18.90;81.20;;;;;;5066955;28;20429;-66
2022/10/03 05:43:45;;;;;;;12.00;1.70;;;18.90;81.20;;;;;;5050619;28;20066;-69
2022/10/03 05:46:37;;;;;;;5.22;1.60;;;18.90;81.10;;;;;;5068605;28;20028;-68
2022/10/03 05:49:23;;;;;;;4.97;1.20;;;18.90;81.00;;;;;;5067166;28;20020;-67
2022/10/03 05:52:16;;;;;;;5.10;1.48;;;18.90;80.80;;;;;;5056781;28;20411;-68
2022/10/03 05:55:01;;;;;;;4.07;1.08;;;18.90;80.50;;;;;;5029407;28;20364;-70
2022/10/03 05:58:05;;;;;;;5.65;1.10;;;18.90;80.20;;;;;;5066353;28;20059;-68
2022/10/03 06:01:08;;;;;;;3.92;1.20;;;18.90;80.10;;;;;;5065218;28;20508;-71
2022/10/03 06:03:56;;;;;;;5.00;1.58;;;18.90;80.00;;;;;;5070142;28;20029;-71
2022/10/03 06:06:44;;;;;;;5.57;1.40;;;18.90;80.10;;;;;;5071371;28;20032;-69
2022/10/03 06:09:41;;;;;;;5.95;1.80;;;19.00;80.40;;;;;;5069836;28;20036;-71
2022/10/03 06:12:13;;;;;;;5.47;1.30;;;19.00;80.70;;;;;;5066347;28;20422;-70
2022/10/03 06:14:48;;;;;;;7.75;1.45;;;19.10;81.00;;;;;;5069957;28;20024;-67
2022/10/03 06:17:42;;;;;;;6.90;1.65;;;19.10;80.90;;;;;;5054863;28;20036;-71
2022/10/03 06:20:56;;;;;;;9.18;3.05;;;19.10;80.80;;;;;;5064490;28;20024;-70
2022/10/03 06:23:44;;;;;;;3.97;1.00;;;19.20;80.90;;;;;;5070555;28;20387;-70
2022/10/03 06:26:23;;;;;;;6.30;1.73;;;19.20;81.00;;;;;;5067656;28;20028;-67
2022/10/03 06:29:01;;;;;;;4.93;1.75;;;19.20;80.80;;;;;;5072152;28;20093;-69
2022/10/03 06:32:06;;;;;;;11.45;1.73;;;19.20;80.70;;;;;;5069861;28;20027;-71
2022/10/03 06:35:10;;;;;;;7.20;2.10;;;19.30;81.40;;;;;;5066386;28;20024;-71
2022/10/03 06:38:23;;;;;;;8.85;1.42;;;19.30;81.10;;;;;;5070253;28;20052;-70
2022/10/03 06:41:22;;;;;;;5.72;1.58;;;19.30;81.10;;;;;;5067876;28;20113;-68
2022/10/03 06:43:55;;;;;;;4.50;2.60;;;19.40;81.10;;;;;;5066174;28;20036;-70
2022/10/03 06:46:47;;;;;;;11.05;2.42;;;19.40;81.10;;;;;;5061249;28;20116;-69
2022/10/03 06:50:02;;;;;;;5.18;2.20;;;19.50;81.10;;;;;;5072572;28;20024;-71
2022/10/03 06:53:17;;;;;;;8.02;1.65;;;19.50;81.10;;;;;;5071462;28;20033;-69
2022/10/03 06:56:25;;;;;;;16.63;1.60;;;19.60;81.20;;;;;;5066566;28;20025;-70
2022/10/03 06:59:09;;;;;;;2.50;1.20;;;19.60;81.30;;;;;;5073483;28;20552;-71
2022/10/03 07:01:49;;;;;;;3.10;1.45;;;19.70;81.30;;;;;;5073994;28;20491;-70
2022/10/03 07:04:37;;;;;;;5.50;2.25;;;19.70;81.30;;;;;;5068390;28;20445;-69
2022/10/03 07:07:31;;;;;;;3.80;1.60;;;19.80;81.20;;;;;;5070140;28;20037;-70
2022/10/03 07:10:25;;;;;;;5.53;1.60;;;19.80;81.00;;;;;;5071658;28;20081;-68
2022/10/03 07:13:05;;;;;;;5.57;1.55;;;19.80;80.70;;;;;;5070601;28;20075;-66
2022/10/03 07:15:56;;;;;;;4.80;1.75;;;19.80;80.20;;;;;;5073556;28;20024;-67
2022/10/03 07:19:01;;;;;;;13.85;2.45;;;19.80;80.00;;;;;;5073662;28;20123;-66
2022/10/03 07:21:40;;;;;;;12.77;3.17;;;19.80;80.10;;;;;;5022977;28;20161;-66
2022/10/03 07:24:39;;;;;;;8.15;2.55;;;19.80;80.30;;;;;;5076903;28;20032;-66
2022/10/03 07:27:28;;;;;;;2.72;2.03;;;19.80;81.00;;;;;;5074148;28;20025;-66
2022/10/03 07:30:22;;;;;;;10.27;1.80;;;19.80;81.40;;;;;;5071925;28;20486;-72
2022/10/03 07:33:17;;;;;;;5.03;1.42;;;19.80;81.30;;;;;;5047775;28;20033;-71
2022/10/03 07:39:33;;;;;;;3.35;1.05;;;19.80;80.80;;;;;;5070609;28;20058;-72
2022/10/03 07:42:24;;;;;;;4.75;1.40;;;19.80;80.30;;;;;;5018009;28;20987;-68
2022/10/03 07:45:00;;;;;;;3.83;1.02;;;19.80;80.90;;;;;;5071988;28;20025;-68
2022/10/03 07:47:57;;;;;;;3.75;1.42;;;19.80;80.10;;;;;;5073473;28;20040;-71
2022/10/03 07:51:01;;;;;;;6.15;1.55;;;19.80;80.00;;;;;;5072317;28;20024;-70
2022/10/03 07:54:04;;;;;;;4.07;1.10;;;19.80;80.10;;;;;;5075259;28;20032;-67
2022/10/03 07:56:47;;;;;;;4.85;1.95;;;19.80;80.00;;;;;;5070820;28;20548;-68
2022/10/03 07:59:37;;;;;;;12.25;3.20;;;19.70;80.10;;;;;;5071980;28;20024;-71
2022/10/03 08:02:21;;;;;;;8.60;1.50;;;19.80;80.90;;;;;;5071474;28;20028;-69
2022/10/03 10:26:13;;;;;;;13.65;3.25;;;20.80;77.10;;;;;;5122181;27;20493;-69
2022/10/03 10:28:55;;;;;;;14.57;3.55;;;21.30;76.30;;;;;;5117174;27;20023;-68
2022/10/03 10:31:48;;;;;;;7.88;2.22;;;21.40;75.70;;;;;;5118577;27;20739;-66
2022/10/03 10:34:29;;;;;;;9.20;2.67;;;21.50;74.10;;;;;;5119518;27;20431;-67
2022/10/03 10:37:32;;;;;;;14.27;2.55;;;21.50;73.10;;;;;;5117761;27;20047;-69
2022/10/03 10:40:07;;;;;;;9.48;2.30;;;21.60;72.40;;;;;;5121919;27;20027;-67
2022/10/03 10:42:52;;;;;;;13.43;2.47;;;21.60;72.30;;;;;;5126897;27;20088;-70
2022/10/03 10:46:05;;;;;;;15.30;3.92;;;21.70;72.20;;;;;;5124384;27;20466;-70
2022/10/03 10:49:05;;;;;;;10.73;2.33;;;21.70;70.20;;;;;;5118444;27;20538;-66
2022/10/03 10:51:58;;;;;;;9.65;2.13;;;21.70;68.30;;;;;;5119519;27;20058;-66
2022/10/03 10:54:53;;;;;;;8.95;3.22;;;21.80;67.80;;;;;;5121216;27;20683;-68
2022/10/03 10:57:23;;;;;;;8.55;2.97;;;21.80;67.10;;;;;;5115040;27;20043;-69
2022/10/03 11:00:26;;;;;;;9.77;2.28;;;21.90;66.40;;;;;;5117687;27;20482;-67
2022/10/03 11:03:02;;;;;;;11.27;2.60;;;22.00;66.30;;;;;;5119760;27;20019;-69
2022/10/03 11:05:58;;;;;;;10.02;2.42;;;22.10;65.00;;;;;;5112910;27;20027;-69
2022/10/03 11:09:05;;;;;;;6.28;1.73;;;22.20;64.20;;;;;;5116485;27;20142;-69
2022/10/03 11:11:56;;;;;;;8.90;3.50;;;22.20;63.90;;;;;;5122828;27;20468;-70
2022/10/03 11:14:27;;;;;;;6.22;2.03;;;22.30;63.80;;;;;;5120423;27;20543;-67
2022/10/03 11:17:38;;;;;;;6.72;2.00;;;22.40;63.50;;;;;;5115843;27;20655;-70
2022/10/03 11:20:51;;;;;;;6.15;2.47;;;22.40;63.30;;;;;;5118622;27;20484;-67
2022/10/03 11:23:45;;;;;;;13.32;2.38;;;22.50;63.10;;;;;;5110133;27;20339;-67
2022/10/03 11:26:29;;;;;;;10.43;1.88;;;22.60;62.70;;;;;;5102826;27;20023;-69
2022/10/03 11:29:04;;;;;;;9.93;3.63;;;22.60;62.50;;;;;;5099801;27;20477;-69
2022/10/03 11:31:34;;;;;;;8.45;2.70;;;22.70;62.60;;;;;;5101954;27;20020;-66
2022/10/03 11:34:18;;;;;;;8.00;2.53;;;22.70;62.30;;;;;;5104001;27;20514;-70
2022/10/03 11:37:06;;;;;;;10.35;2.70;;;22.60;62.20;;;;;;5104516;27;20051;-67
2022/10/03 11:39:32;;;;;;;7.45;1.88;;;22.70;62.10;;;;;;5106841;27;20407;-70
2022/10/03 11:42:09;;;;;;;10.60;2.42;;;22.70;61.80;;;;;;5108453;27;20032;-67
2022/10/03 11:44:55;;;;;;;12.32;2.88;;;22.70;61.60;;;;;;5109980;27;20424;-68
2022/10/03 11:47:41;;;;;;;9.73;2.10;;;22.80;62.20;;;;;;5100267;27;20032;-66
2022/10/03 11:50:37;;;;;;;9.07;2.75;;;22.80;61.60;;;;;;5104371;27;20118;-67
2022/10/03 11:54:11;;;;;;;6.85;2.78;;;22.80;61.50;;;;;;5104704;27;20470;-67
2022/10/03 11:56:50;;;;;;;6.88;1.90;;;22.90;61.10;;;;;;5037234;28;20040;-69
2022/10/03 11:59:35;;;;;;;10.55;2.20;;;22.90;60.40;;;;;;5101927;27;20028;-69
2022/10/03 12:02:35;;;;;;;14.57;3.78;;;22.90;60.60;;;;;;5105327;27;20728;-67
2022/10/03 12:05:15;;;;;;;12.32;2.88;;;22.80;60.70;;;;;;5107986;27;20389;-66
2022/10/03 12:10:52;;;;;;;8.05;2.75;;;22.90;61.70;;;;;;5099673;27;20784;-67
2022/10/03 12:13:29;;;;;;;14.93;3.67;;;22.90;61.50;;;;;;5109558;27;20035;-70
2022/10/03 12:15:59;;;;;;;5.10;1.48;;;22.90;61.50;;;;;;5103093;27;20095;-70
2022/10/03 12:18:34;;;;;;;12.98;4.13;;;22.90;60.80;;;;;;5106294;27;20060;-69
2022/10/03 12:21:14;;;;;;;8.32;2.28;;;23.00;60.50;;;;;;5104698;27;20027;-69
2022/10/03 12:24:02;;;;;;;5.15;1.85;;;22.90;60.30;;;;;;5104980;27;20414;-67
2022/10/03 12:26:54;;;;;;;8.50;2.67;;;23.00;60.60;;;;;;5104241;27;20031;-68
2022/10/03 12:29:24;;;;;;;5.57;1.92;;;23.10;59.70;;;;;;5104951;27;20028;-69
2022/10/03 12:32:20;;;;;;;7.82;1.90;;;23.10;59.30;;;;;;5106709;27;20034;-67
2022/10/03 12:34:48;;;;;;;15.70;2.40;;;23.10;58.60;;;;;;5103580;27;20147;-67
2022/10/03 12:37:18;;;;;;;3.72;1.67;;;23.20;58.60;;;;;;5101168;27;20103;-70
2022/10/03 12:39:54;;;;;;;7.38;1.77;;;23.20;57.10;;;;;;5101027;27;20024;-67
2022/10/03 12:42:32;;;;;;;9.82;2.08;;;23.20;56.90;;;;;;5101797;27;20024;-67
2022/10/03 12:45:04;;;;;;;5.88;2.00;;;23.20;56.60;;;;;;5106996;27;20061;-67
2022/10/03 12:47:44;;;;;;;7.90;2.13;;;23.10;55.80;;;;;;5104917;27;20078;-66
2022/10/03 12:50:24;;;;;;;7.93;3.25;;;23.10;55.60;;;;;;5102513;27;20433;-67
2022/10/03 12:53:19;;;;;;;5.13;2.00;;;23.00;55.90;;;;;;5105992;27;20129;-67
2022/10/03 12:56:17;;;;;;;7.22;2.65;;;23.00;56.40;;;;;;5100473;27;20031;-67
2022/10/03 12:59:13;;;;;;;7.82;2.95;;;23.10;56.70;;;;;;5106360;27;20043;-66
2022/10/03 13:02:21;;;;;;;9.10;2.63;;;23.10;56.50;;;;;;5052085;27;20530;-66
2022/10/03 13:05:03;;;;;;;18.77;2.38;;;23.10;57.00;;;;;;5105043;27;20023;-70
2022/10/03 13:07:51;;;;;;;6.00;2.65;;;23.20;57.20;;;;;;5106905;27;20086;-67
2022/10/03 13:10:38;;;;;;;9.63;1.55;;;23.20;57.00;;;;;;5102150;27;20470;-67
2022/10/03 13:13:12;;;;;;;8.55;2.08;;;23.20;56.40;;;;;;5102006;27;20124;-68
2022/10/03 13:15:56;;;;;;;6.05;1.90;;;23.20;56.10;;;;;;5106467;27;20062;-68
2022/10/03 13:19:04;;;;;;;6.20;1.98;;;23.20;56.30;;;;;;5103040;27;20513;-67
2022/10/03 13:21:43;;;;;;;4.53;1.38;;;23.20;54.70;;;;;;5105716;27;20491;-69
2022/10/03 13:24:44;;;;;;;4.32;1.13;;;23.20;54.30;;;;;;5098755;27;20039;-67
2022/10/03 13:27:42;;;;;;;6.40;1.10;;;23.20;54.10;;;;;;5105741;27;20027;-67
2022/10/03 13:30:31;;;;;;;3.28;0.90;;;23.10;54.60;;;;;;5097651;27;20142;-68
2022/10/03 13:33:31;;;;;;;4.75;1.73;;;23.10;54.60;;;;;;5104014;27;20039;-66
2022/10/03 13:36:19;;;;;;;9.55;1.20;;;23.10;54.90;;;;;;5102672;27;20119;-68
2022/10/03 13:39:10;;;;;;;6.07;2.10;;;23.00;54.90;;;;;;5107551;27;20028;-68
2022/10/03 13:41:58;;;;;;;5.68;0.95;;;23.00;55.30;;;;;;5101736;28;20500;-69
2022/10/03 13:44:47;;;;;;;7.00;2.00;;;23.00;54.80;;;;;;5106176;27;20123;-69
2022/10/03 13:47:54;;;;;;;5.00;1.25;;;22.90;54.70;;;;;;5102757;27;20031;-70
2022/10/03 13:50:47;;;;;;;5.57;0.80;;;23.00;54.80;;;;;;5096730;27;20460;-67
2022/10/03 13:53:36;;;;;;;8.52;2.63;;;23.00;54.50;;;;;;5103161;27;20031;-67
2022/10/03 13:56:20;;;;;;;2.97;1.10;;;23.00;54.20;;;;;;5106161;27;20028;-67
2022/10/03 13:59:06;;;;;;;3.13;1.52;;;22.90;53.50;;;;;;5100950;28;20469;-68
2022/10/03 14:01:57;;;;;;;6.80;2.72;;;22.90;53.50;;;;;;5101893;28;20032;-66
2022/10/03 14:04:36;;;;;;;6.20;1.17;;;22.80;53.20;;;;;;5100394;28;20381;-70
2022/10/03 14:07:25;;;;;;;4.10;1.17;;;22.80;53.70;;;;;;5102764;27;20054;-68
2022/10/03 14:10:04;;;;;;;3.80;1.10;;;22.80;54.40;;;;;;5104535;27;20047;-69
2022/10/03 14:13:16;;;;;;;10.40;1.80;;;22.80;55.00;;;;;;5103201;28;20023;-69
2022/10/03 14:16:11;;;;;;;13.40;3.05;;;22.80;55.70;;;;;;5075960;28;20028;-67
2022/10/03 14:19:04;;;;;;;14.43;2.58;;;22.80;56.80;;;;;;5103849;28;20066;-66
2022/10/03 14:22:02;;;;;;;6.05;1.75;;;22.90;57.90;;;;;;5103002;28;20106;-66
2022/10/03 14:24:54;;;;;;;8.90;1.50;;;22.90;58.70;;;;;;5098922;28;20040;-67
2022/10/03 14:27:47;;;;;;;7.75;2.67;;;22.90;58.70;;;;;;5104501;27;20067;-68
2022/10/03 14:30:31;;;;;;;8.73;4.32;;;22.90;58.90;;;;;;5100524;28;20043;-71
2022/10/03 14:33:24;;;;;;;10.80;2.75;;;22.90;59.70;;;;;;5096741;28;20710;-70
2022/10/03 14:36:13;;;;;;;6.97;1.80;;;22.90;60.70;;;;;;5098121;28;20061;-71
2022/10/03 14:38:56;;;;;;;10.82;3.33;;;22.90;61.00;;;;;;5104431;28;20031;-70
2022/10/03 14:41:38;;;;;;;10.50;4.00;;;22.90;61.50;;;;;;5098348;28;20020;-67
2022/10/03 14:44:38;;;;;;;9.73;3.33;;;22.80;61.60;;;;;;5102815;28;20032;-71
2022/10/03 14:47:14;;;;;;;7.47;2.53;;;22.80;61.50;;;;;;5094272;28;20032;-70
2022/10/03 14:50:03;;;;;;;7.18;2.60;;;22.80;60.90;;;;;;5104360;28;20471;-66
2022/10/03 14:52:43;;;;;;;12.35;2.45;;;22.80;61.00;;;;;;5105146;28;20550;-67
2022/10/03 14:55:24;;;;;;;8.15;2.72;;;22.70;60.80;;;;;;5104105;28;20036;-67
2022/10/03 14:58:07;;;;;;;9.18;2.25;;;22.70;60.80;;;;;;5094841;28;20031;-71
2022/10/03 15:00:44;;;;;;;16.02;2.88;;;22.70;60.70;;;;;;5102126;27;20027;-76
2022/10/03 15:03:18;;;;;;;7.15;2.33;;;22.70;60.30;;;;;;5101088;27;20027;-66
2022/10/03 15:06:16;;;;;;;8.83;2.13;;;22.70;60.10;;;;;;5102914;27;20077;-70
2022/10/03 15:09:01;;;;;;;9.93;1.85;;;22.70;59.90;;;;;;5103730;27;20594;-68
2022/10/03 15:11:35;;;;;;;6.65;1.95;;;22.70;59.40;;;;;;5102382;27;20027;-67
2022/10/03 15:14:08;;;;;;;13.70;3.67;;;22.70;58.90;;;;;;5104077;27;20505;-67
2022/10/03 15:16:43;;;;;;;10.88;7.38;;;22.70;58.70;;;;;;5098652;27;20116;-66
2022/10/03 15:19:53;;;;;;;6.55;3.35;;;22.70;58.50;;;;;;5101393;27;20027;-67
2022/10/03 15:23:15;;;;;;;8.45;1.83;;;22.60;58.40;;;;;;5094411;27;20020;-66
2022/10/03 15:26:23;;;;;;;6.13;1.50;;;22.60;58.00;;;;;;5101675;27;20040;-67
2022/10/03 15:29:33;;;;;;;8.95;2.22;;;22.60;58.00;;;;;;5100364;27;20133;-67
2022/10/03 15:32:41;;;;;;;9.60;2.05;;;22.60;57.80;;;;;;5099758;27;20027;-68
2022/10/03 15:35:47;;;;;;;7.40;3.75;;;22.50;57.70;;;;;;5105054;27;20020;-70
2022/10/03 15:39:01;;;;;;;12.75;2.55;;;22.50;57.10;;;;;;5104203;27;20077;-67
2022/10/03 15:41:37;;;;;;;5.53;1.58;;;22.50;57.90;;;;;;5094544;27;20043;-67
2022/10/03 15:44:38;;;;;;;8.75;2.03;;;22.50;58.00;;;;;;5099594;27;20026;-69
2022/10/03 15:47:25;;;;;;;5.18;2.00;;;22.40;57.90;;;;;;5102956;27;20023;-70
2022/10/03 15:50:18;;;;;;;6.07;1.63;;;22.40;58.00;;;;;;5103794;27;20069;-69
2022/10/03 15:52:51;;;;;;;6.13;1.83;;;22.30;58.10;;;;;;5100401;27;20043;-68
2022/10/03 15:55:41;;;;;;;7.07;1.65;;;22.30;58.30;;;;;;5101196;27;20024;-69
2022/10/03 15:58:28;;;;;;;6.88;2.05;;;22.20;58.70;;;;;;5098014;27;20044;-68
2022/10/03 16:01:19;;;;;;;15.07;3.50;;;22.20;59.30;;;;;;5103152;27;20023;-69
2022/10/03 16:03:51;;;;;;;7.95;2.42;;;22.20;59.60;;;;;;5112588;27;20062;-70
2022/10/03 16:06:22;;;;;;;8.77;3.05;;;22.20;60.00;;;;;;5105781;27;20024;-69
2022/10/03 16:09:09;;;;;;;13.35;3.78;;;22.20;60.30;;;;;;5105681;27;20027;-69
2022/10/03 16:11:45;;;;;;;11.43;2.60;;;22.10;60.70;;;;;;5102285;27;20453;-69
2022/10/03 16:14:17;;;;;;;11.52;2.47;;;22.10;60.80;;;;;;5097524;27;20042;-69
2022/10/03 16:16:58;;;;;;;8.57;2.53;;;22.00;61.00;;;;;;5098366;27;20035;-68
2022/10/03 16:19:39;;;;;;;10.93;2.92;;;22.00;61.20;;;;;;5099356;27;20027;-71
2022/10/03 16:22:11;;;;;;;6.63;1.58;;;22.00;61.20;;;;;;5095282;27;20100;-72
2022/10/03 16:25:26;;;;;;;10.02;1.90;;;21.90;61.50;;;;;;5094820;27;20048;-72
2022/10/03 16:28:35;;;;;;;11.00;1.70;;;21.80;61.60;;;;;;5094524;27;20038;-70
2022/10/03 16:31:37;;;;;;;12.50;2.30;;;21.80;62.10;;;;;;5106738;27;20450;-72
2022/10/03 16:34:11;;;;;;;8.68;1.83;;;21.70;62.50;;;;;;5103919;27;20521;-72
2022/10/03 16:36:46;;;;;;;10.57;3.22;;;21.70;62.80;;;;;;5102123;27;20027;-71
2022/10/03 16:39:18;;;;;;;;;;;21.70;63.40;;;;;;5093058;27;20425;-70
2022/10/03 16:41:46;;;;;;;9.85;2.25;;;21.70;63.70;;;;;;5094671;27;19911;-71
2022/10/03 16:44:21;;;;;;;9.57;2.80;;;21.60;64.10;;;;;;5096177;27;20020;-70
2022/10/03 16:46:49;;;;;;;14.93;2.55;;;21.60;65.70;;;;;;5099235;27;20024;-70
2022/10/03 16:52:20;;;;;;;4.75;2.55;;;21.60;67.40;;;;;;5092425;27;20128;-70
2022/10/03 16:54:50;;;;;;;9.63;2.45;;;21.50;67.80;;;;;;5096322;27;20130;-70
2022/10/03 16:57:22;;;;;;;11.65;2.40;;;21.50;67.00;;;;;;5096382;27;20020;-69
2022/10/03 16:59:53;;;;;;;5.93;1.90;;;21.50;65.90;;;;;;5097675;27;20062;-70
2022/10/03 17:02:26;;;;;;;10.00;2.08;;;21.50;65.30;;;;;;5093526;27;20023;-71
2022/10/03 17:05:01;;;;;;;12.05;3.90;;;21.40;64.90;;;;;;5097341;27;20031;-71
2022/10/03 17:07:36;;;;;;;;;;;21.40;65.40;;;;;;5107627;27;20427;-69
2022/10/03 17:10:03;;;;;;;9.13;2.10;;;21.40;65.70;;;;;;5095002;27;19912;-71
2022/10/03 17:12:36;;;;;;;6.72;2.42;;;21.30;65.50;;;;;;5094862;27;20383;-71
2022/10/03 17:15:08;;;;;;;8.18;2.30;;;21.30;65.10;;;;;;5093168;27;20067;-71
2022/10/03 17:18:01;;;;;;;7.22;2.17;;;21.30;65.10;;;;;;5097321;27;20038;-70
2022/10/03 17:20:37;;;;;;;3.13;1.83;;;21.30;65.50;;;;;;5089115;27;20020;-70
2022/10/03 17:23:21;;;;;;;7.75;2.35;;;21.20;65.40;;;;;;5089322;28;20106;-72
2022/10/03 17:25:57;;;;;;;12.98;2.20;;;21.30;65.70;;;;;;5094025;27;20039;-70
2022/10/03 17:28:33;;;;;;;8.52;2.53;;;21.20;66.70;;;;;;5096482;27;20048;-70
2022/10/03 17:31:04;;;;;;;9.68;2.83;;;21.30;66.70;;;;;;5094052;27;20069;-70
2022/10/03 17:33:45;;;;;;;27.38;3.63;;;21.20;66.70;;;;;;5096244;27;20032;-70
2022/10/03 17:36:56;;;;;;;10.00;2.45;;;21.20;66.80;;;;;;5098933;27;20143;-71
2022/10/03 17:39:38;;;;;;;12.50;2.47;;;21.20;66.70;;;;;;5092187;28;20119;-71
2022/10/03 17:42:53;;;;;;;5.32;1.85;;;21.10;66.50;;;;;;5094251;27;20157;-71
2022/10/03 17:45:32;;;;;;;9.82;2.22;;;21.10;66.80;;;;;;5088515;27;20063;-69
2022/10/03 17:48:35;;;;;;;12.40;2.47;;;21.10;66.80;;;;;;5098408;27;20058;-70
2022/10/03 17:51:40;;;;;;;11.43;4.07;;;21.10;67.00;;;;;;5095672;28;20027;-71
2022/10/03 17:54:32;;;;;;;13.32;4.07;;;21.00;67.20;;;;;;5097103;27;20040;-71
2022/10/03 17:57:13;;;;;;;4.40;2.58;;;21.00;67.20;;;;;;5098082;27;20106;-70
2022/10/03 18:00:14;;;;;;;4.22;2.05;;;21.00;67.20;;;;;;5098594;27;20386;-70
2022/10/03 18:03:02;;;;;;;7.95;1.90;;;21.00;67.20;;;;;;5099875;27;20506;-69
2022/10/03 18:06:00;;;;;;;14.32;3.28;;;20.90;67.30;;;;;;5092624;28;20217;-70
2022/10/03 18:08:29;;;;;;;9.40;2.22;;;20.90;68.10;;;;;;5088115;28;20064;-72
2022/10/03 18:11:01;;;;;;;10.38;2.58;;;20.90;67.70;;;;;;5097790;28;20051;-71
2022/10/03 18:13:46;;;;;;;15.35;3.28;;;20.90;67.80;;;;;;5099197;28;20027;-70
2022/10/03 18:16:13;;;;;;;17.52;6.05;;;20.90;67.90;;;;;;5098648;28;20058;-70
2022/10/03 18:18:55;;;;;;;28.17;6.70;;;20.80;68.40;;;;;;5102585;28;20035;-69
2022/10/03 18:21:41;;;;;;;12.73;4.65;;;20.80;69.10;;;;;;5097913;28;20062;-70
2022/10/03 18:24:11;;;;;;;16.55;3.80;;;20.80;69.00;;;;;;5101044;28;20088;-71
2022/10/03 18:26:48;;;;;;;6.32;2.42;;;20.80;68.60;;;;;;5097918;28;20427;-72
2022/10/03 18:29:33;;;;;;;12.77;2.33;;;20.80;68.50;;;;;;5096857;28;20028;-70
2022/10/03 18:32:17;;;;;;;13.23;2.33;;;20.80;68.50;;;;;;5102896;28;20027;-71
2022/10/03 18:35:09;;;;;;;10.57;3.15;;;20.80;69.10;;;;;;5104692;27;20080;-71
2022/10/03 18:38:05;;;;;;;4.30;1.35;;;20.70;68.30;;;;;;5102555;27;20347;-70
2022/10/03 18:40:42;;;;;;;7.97;2.28;;;20.70;68.30;;;;;;5100872;27;20414;-69
2022/10/03 18:43:32;;;;;;;9.18;2.97;;;20.70;68.30;;;;;;5103442;27;20016;-69
2022/10/03 18:46:13;;;;;;;11.73;4.05;;;20.70;68.50;;;;;;5109614;27;20018;-70
2022/10/03 18:49:12;;;;;;;10.73;2.60;;;20.60;68.50;;;;;;5105232;27;20032;-70
2022/10/03 18:51:45;;;;;;;8.68;2.10;;;20.60;68.70;;;;;;5101596;27;20031;-71
2022/10/03 18:54:50;;;;;;;14.63;2.83;;;20.60;69.20;;;;;;5105941;27;20035;-70
2022/10/03 18:57:24;;;;;;;10.48;4.18;;;20.60;69.30;;;;;;5106919;27;20077;-69
2022/10/03 19:00:00;;;;;;;8.60;2.30;;;20.60;69.80;;;;;;5106607;27;20489;-72
2022/10/03 19:02:41;;;;;;;7.28;2.38;;;20.60;69.80;;;;;;5106259;27;20825;-69
2022/10/03 19:05:37;;;;;;;12.88;4.22;;;20.50;69.60;;;;;;5107253;27;20045;-71
2022/10/03 19:08:39;;;;;;;7.13;2.30;;;20.50;69.60;;;;;;5101787;27;20089;-71
2022/10/03 19:11:25;;;;;;;14.82;3.65;;;20.50;69.50;;;;;;5106134;27;20027;-69